createdAt,value
2018-02-16T00:00:19.532Z,32.30
2018-02-16T00:01:19.362Z,28.50
2018-02-16T00:02:19.440Z,24.80
2018-02-16T00:03:19.309Z,27.90
2018-02-16T00:04:19.352Z,28.20
2018-02-16T00:05:19.266Z,28.70
2018-02-16T00:06:19.264Z,31.50
2018-02-16T00:07:19.192Z,29.40
2018-02-16T00:08:19.279Z,25.70
2018-02-16T00:09:19.129Z,28.40
2018-02-16T00:10:19.191Z,30.70
2018-02-16T00:11:19.075Z,28.40
2018-02-16T00:12:19.101Z,29.30
2018-02-16T00:13:19.018Z,28.40
2018-02-16T00:14:19.113Z,31.60
2018-02-16T00:15:18.959Z,30.00
2018-02-16T00:16:19.027Z,30.90
2018-02-16T00:17:18.900Z,31.30
2018-02-16T00:18:18.939Z,29.90
2018-02-16T00:19:18.839Z,30.30
2018-02-16T00:20:18.953Z,28.00
2018-02-16T00:21:18.782Z,29.70
2018-02-16T00:22:18.863Z,30.10
2018-02-16T00:23:18.730Z,30.20
2018-02-16T00:24:18.772Z,30.20
2018-02-16T00:25:18.661Z,30.40
2018-02-16T00:26:18.691Z,30.20
2018-02-16T00:27:18.607Z,29.10
2018-02-16T00:28:18.701Z,29.40
2018-02-16T00:29:18.542Z,27.60
2018-02-16T00:30:18.611Z,27.90
2018-02-16T00:31:18.485Z,28.90
2018-02-16T00:32:18.522Z,25.90
2018-02-16T00:33:18.429Z,30.10
2018-02-16T00:34:18.537Z,30.80
2018-02-16T00:35:18.371Z,26.10
2018-02-16T00:36:18.448Z,32.20
2018-02-16T00:37:18.310Z,31.30
2018-02-16T00:38:18.360Z,30.40
2018-02-16T00:39:18.251Z,32.50
2018-02-16T00:40:18.379Z,32.40
2018-02-16T00:41:18.188Z,31.40
2018-02-16T00:42:18.287Z,28.10
2018-02-16T00:43:18.129Z,32.00
2018-02-16T00:44:18.197Z,29.80
2018-02-16T00:45:18.073Z,30.80
2018-02-16T00:46:18.107Z,29.60
2018-02-16T00:47:18.007Z,30.20
2018-02-16T00:48:18.123Z,27.60
2018-02-16T00:49:17.952Z,30.20
2018-02-16T00:50:18.037Z,28.70
2018-02-16T00:51:17.894Z,30.50
2018-02-16T00:52:17.946Z,30.80
2018-02-16T00:53:17.835Z,27.90
2018-02-16T00:54:17.957Z,29.20
2018-02-16T00:55:17.775Z,27.60
2018-02-16T00:56:17.870Z,31.80
2018-02-16T00:57:17.714Z,29.40
2018-02-16T00:58:17.782Z,29.30
2018-02-16T00:59:17.656Z,28.70
2018-02-16T01:00:17.795Z,32.40
2018-02-16T01:01:17.595Z,28.00
2018-02-16T01:02:17.706Z,28.90
2018-02-16T01:03:17.539Z,31.00
2018-02-16T01:04:17.619Z,31.80
2018-02-16T01:05:17.473Z,28.80
2018-02-16T01:06:17.533Z,29.90
2018-02-16T01:07:17.421Z,33.10
2018-02-16T01:08:17.551Z,28.30
2018-02-16T01:09:17.356Z,31.70
2018-02-16T01:10:17.461Z,28.80
2018-02-16T01:11:17.300Z,29.90
2018-02-16T01:12:17.370Z,29.40
2018-02-16T01:13:17.239Z,31.80
2018-02-16T01:14:17.374Z,33.10
2018-02-16T01:15:17.186Z,29.30
2018-02-16T01:16:17.292Z,30.40
2018-02-16T01:17:17.121Z,31.10
2018-02-16T01:18:17.208Z,30.90
2018-02-16T01:19:17.064Z,32.60
2018-02-16T01:20:17.220Z,29.70
2018-02-16T01:21:17.002Z,30.10
2018-02-16T01:22:17.132Z,30.90
2018-02-16T01:23:16.944Z,32.00
2018-02-16T01:24:17.045Z,28.80
2018-02-16T01:25:16.884Z,31.50
2018-02-16T01:26:16.951Z,31.90
2018-02-16T01:27:16.822Z,33.00
2018-02-16T01:28:16.969Z,28.80
2018-02-16T01:29:16.763Z,28.20
2018-02-16T01:30:16.878Z,30.70
2018-02-16T01:31:16.704Z,30.80
2018-02-16T01:32:16.790Z,29.60
2018-02-16T01:33:16.644Z,31.00
2018-02-16T01:34:16.805Z,32.20
2018-02-16T01:35:16.588Z,30.60
2018-02-16T01:36:16.715Z,34.10
2018-02-16T01:37:16.525Z,31.60
2018-02-16T01:38:16.626Z,29.40
2018-02-16T01:39:16.465Z,31.50
2018-02-16T01:40:16.539Z,28.00
2018-02-16T01:41:16.406Z,30.90
2018-02-16T01:42:16.549Z,32.80
2018-02-16T01:43:16.347Z,33.70
2018-02-16T01:44:16.466Z,30.60
2018-02-16T01:45:16.293Z,31.20
2018-02-16T01:46:16.379Z,31.10
2018-02-16T01:47:16.226Z,29.00
2018-02-16T01:48:16.390Z,32.20
2018-02-16T01:49:16.165Z,32.40
2018-02-16T01:50:16.301Z,32.90
2018-02-16T01:51:16.107Z,35.90
2018-02-16T01:52:16.215Z,30.00
2018-02-16T01:53:16.042Z,35.50
2018-02-16T01:54:16.229Z,35.90
2018-02-16T01:55:15.989Z,32.00
2018-02-16T01:56:16.140Z,37.90
2018-02-16T01:57:15.927Z,35.80
2018-02-16T01:58:16.050Z,32.10
2018-02-16T01:59:15.870Z,31.70
2018-02-16T02:00:15.962Z,38.30
2018-02-16T02:01:15.808Z,35.10
2018-02-16T02:02:15.974Z,30.70
2018-02-16T02:03:15.749Z,34.40
2018-02-16T02:04:15.886Z,37.50
2018-02-16T02:05:15.692Z,34.40
2018-02-16T02:06:15.696Z,34.80
2018-02-16T02:07:15.628Z,36.90
2018-02-16T02:08:15.703Z,37.60
2018-02-16T02:09:15.567Z,35.70
2018-02-16T02:10:15.624Z,35.70
2018-02-16T02:11:15.508Z,37.00
2018-02-16T02:12:15.533Z,34.10
2018-02-16T02:13:15.453Z,37.20
2018-02-16T02:14:15.443Z,38.30
2018-02-16T02:15:15.395Z,32.20
2018-02-16T02:16:15.459Z,34.60
2018-02-16T02:17:15.329Z,36.50
2018-02-16T02:18:15.369Z,42.20
2018-02-16T02:19:15.271Z,40.10
2018-02-16T02:20:15.281Z,35.00
2018-02-16T02:21:15.209Z,36.60
2018-02-16T02:22:15.294Z,35.70
2018-02-16T02:23:15.146Z,39.50
2018-02-16T02:24:15.208Z,41.30
2018-02-16T02:25:15.087Z,38.60
2018-02-16T02:26:15.123Z,36.10
2018-02-16T02:27:15.027Z,35.10
2018-02-16T02:28:15.133Z,37.10
2018-02-16T02:29:14.968Z,37.90
2018-02-16T02:30:15.044Z,36.10
2018-02-16T02:31:14.907Z,40.90
2018-02-16T02:32:14.956Z,35.10
2018-02-16T02:33:14.849Z,39.90
2018-02-16T02:34:14.866Z,41.90
2018-02-16T02:35:14.787Z,36.40
2018-02-16T02:36:14.880Z,38.60
2018-02-16T02:37:14.726Z,39.00
2018-02-16T02:38:14.792Z,35.30
2018-02-16T02:39:14.670Z,38.40
2018-02-16T02:40:14.705Z,38.10
2018-02-16T02:41:14.605Z,38.20
2018-02-16T02:42:14.716Z,37.40
2018-02-16T02:43:14.547Z,43.00
2018-02-16T02:44:14.632Z,37.40
2018-02-16T02:45:14.484Z,37.00
2018-02-16T02:46:14.544Z,42.10
2018-02-16T02:47:14.418Z,37.10
2018-02-16T02:48:14.453Z,41.60
2018-02-16T02:49:14.365Z,37.80
2018-02-16T02:50:14.463Z,42.50
2018-02-16T02:51:14.305Z,37.10
2018-02-16T02:52:14.391Z,39.50
2018-02-16T02:53:14.245Z,36.10
2018-02-16T02:54:14.290Z,42.00
2018-02-16T02:55:14.185Z,36.60
2018-02-16T02:56:14.302Z,37.90
2018-02-16T02:57:14.125Z,37.10
2018-02-16T02:58:14.213Z,35.90
2018-02-16T02:59:14.062Z,41.10
2018-02-16T03:00:14.128Z,42.90
2018-02-16T03:01:14.004Z,38.00
2018-02-16T03:02:14.039Z,38.10
2018-02-16T03:03:13.948Z,38.00
2018-02-16T03:04:14.053Z,35.70
2018-02-16T03:05:13.884Z,38.80
2018-02-16T03:06:13.962Z,37.30
2018-02-16T03:07:13.823Z,34.70
2018-02-16T03:08:13.877Z,36.70
2018-02-16T03:09:13.766Z,35.80
2018-02-16T03:10:13.889Z,34.00
2018-02-16T03:11:13.703Z,40.20
2018-02-16T03:12:13.802Z,34.40
2018-02-16T03:13:13.644Z,36.40
2018-02-16T03:14:13.711Z,37.40
2018-02-16T03:15:13.580Z,38.30
2018-02-16T03:16:13.623Z,37.20
2018-02-16T03:17:13.522Z,36.90
2018-02-16T03:18:13.638Z,37.50
2018-02-16T03:19:13.460Z,35.80
2018-02-16T03:20:13.548Z,36.90
2018-02-16T03:21:13.399Z,38.50
2018-02-16T03:22:13.460Z,34.60
2018-02-16T03:23:13.340Z,38.00
2018-02-16T03:24:13.474Z,35.10
2018-02-16T03:25:13.283Z,36.90
2018-02-16T03:26:13.387Z,37.00
2018-02-16T03:27:13.219Z,30.90
2018-02-16T03:28:13.307Z,37.40
2018-02-16T03:29:13.164Z,34.60
2018-02-16T03:30:13.211Z,37.70
2018-02-16T03:31:13.100Z,36.90
2018-02-16T03:32:13.222Z,37.50
2018-02-16T03:33:13.040Z,38.10
2018-02-16T03:34:13.134Z,33.20
2018-02-16T03:35:12.981Z,38.20
2018-02-16T03:36:13.046Z,39.80
2018-02-16T03:37:12.915Z,39.20
2018-02-16T03:38:13.060Z,37.70
2018-02-16T03:39:12.859Z,40.20
2018-02-16T03:40:12.973Z,38.10
2018-02-16T03:41:12.796Z,40.50
2018-02-16T03:42:12.884Z,41.60
2018-02-16T03:43:12.737Z,38.40
2018-02-16T03:44:12.896Z,41.30
2018-02-16T03:45:12.673Z,36.10
2018-02-16T03:46:12.808Z,37.70
2018-02-16T03:47:12.615Z,39.90
2018-02-16T03:48:12.723Z,40.30
2018-02-16T03:49:12.553Z,36.80
2018-02-16T03:50:12.632Z,37.70
2018-02-16T03:51:12.508Z,37.20
2018-02-16T03:52:12.646Z,37.90
2018-02-16T03:53:12.425Z,41.80
2018-02-16T03:54:12.557Z,40.40
2018-02-16T03:55:12.374Z,42.40
2018-02-16T03:56:12.469Z,38.30
2018-02-16T03:57:12.314Z,38.80
2018-02-16T03:58:12.483Z,39.70
2018-02-16T03:59:12.252Z,39.40
2018-02-16T04:00:12.396Z,37.10
2018-02-16T04:01:12.193Z,38.20
2018-02-16T04:02:12.310Z,43.10
2018-02-16T04:03:12.133Z,42.40
2018-02-16T04:04:12.218Z,42.50
2018-02-16T04:05:12.070Z,40.30
2018-02-16T04:06:12.235Z,42.50
2018-02-16T04:07:12.011Z,42.30
2018-02-16T04:08:12.145Z,37.80
2018-02-16T04:09:11.951Z,38.30
2018-02-16T04:10:12.057Z,39.80
2018-02-16T04:11:11.893Z,41.80
2018-02-16T04:12:12.071Z,39.90
2018-02-16T04:13:11.832Z,37.40
2018-02-16T04:14:11.982Z,41.00
2018-02-16T04:15:11.770Z,40.30
2018-02-16T04:16:11.892Z,43.50
2018-02-16T04:17:11.712Z,42.50
2018-02-16T04:18:11.805Z,38.40
2018-02-16T04:19:11.650Z,43.00
2018-02-16T04:20:11.819Z,47.20
2018-02-16T04:21:11.586Z,39.20
2018-02-16T04:22:11.730Z,43.70
2018-02-16T04:23:11.530Z,38.50
2018-02-16T04:24:11.641Z,39.30
2018-02-16T04:25:11.467Z,44.50
2018-02-16T04:26:11.653Z,42.20
2018-02-16T04:27:11.405Z,41.40
2018-02-16T04:28:11.463Z,40.40
2018-02-16T04:29:11.339Z,42.50
2018-02-16T04:30:12.399Z,44.70
2018-02-16T04:31:11.286Z,41.90
2018-02-16T04:32:11.287Z,45.90
2018-02-16T04:33:11.228Z,42.80
2018-02-16T04:34:11.301Z,44.00
2018-02-16T04:35:11.164Z,43.10
2018-02-16T04:36:11.213Z,45.40
2018-02-16T04:37:11.105Z,39.80
2018-02-16T04:38:11.124Z,41.60
2018-02-16T04:39:11.045Z,42.50
2018-02-16T04:40:11.141Z,40.60
2018-02-16T04:41:10.985Z,45.90
2018-02-16T04:42:11.050Z,39.60
2018-02-16T04:43:10.921Z,45.30
2018-02-16T04:44:10.958Z,42.80
2018-02-16T04:45:10.863Z,37.40
2018-02-16T04:46:10.875Z,45.30
2018-02-16T04:47:10.800Z,40.90
2018-02-16T04:48:10.889Z,39.40
2018-02-16T04:49:10.740Z,40.30
2018-02-16T04:50:10.799Z,38.80
2018-02-16T04:51:10.678Z,39.00
2018-02-16T04:52:10.703Z,42.60
2018-02-16T04:53:10.618Z,35.30
2018-02-16T04:54:10.722Z,42.70
2018-02-16T04:55:10.558Z,40.30
2018-02-16T04:56:10.636Z,32.90
2018-02-16T04:57:10.490Z,41.30
2018-02-16T04:58:10.547Z,39.30
2018-02-16T04:59:10.437Z,34.70
2018-02-16T05:00:10.459Z,38.70
2018-02-16T05:01:10.377Z,38.50
2018-02-16T05:02:10.474Z,41.30
2018-02-16T05:03:10.310Z,39.90
2018-02-16T05:04:10.384Z,40.30
2018-02-16T05:05:10.253Z,40.20
2018-02-16T05:06:10.293Z,41.10
2018-02-16T05:07:10.200Z,40.60
2018-02-16T05:08:10.315Z,37.90
2018-02-16T05:09:10.134Z,42.00
2018-02-16T05:10:10.219Z,41.30
2018-02-16T05:11:10.072Z,37.30
2018-02-16T05:12:10.131Z,41.30
2018-02-16T05:13:10.013Z,39.60
2018-02-16T05:14:10.043Z,37.10
2018-02-16T05:15:09.950Z,41.50
2018-02-16T05:16:10.057Z,42.70
2018-02-16T05:17:09.889Z,40.50
2018-02-16T05:18:09.968Z,40.90
2018-02-16T05:19:09.828Z,36.40
2018-02-16T05:20:09.883Z,40.00
2018-02-16T05:21:09.769Z,44.70
2018-02-16T05:22:09.895Z,34.50
2018-02-16T05:23:09.708Z,35.00
2018-02-16T05:24:09.804Z,36.70
2018-02-16T05:25:09.645Z,36.90
2018-02-16T05:26:09.719Z,41.50
2018-02-16T05:27:09.583Z,39.40
2018-02-16T05:28:09.629Z,38.70
2018-02-16T05:29:09.524Z,41.80
2018-02-16T05:30:09.640Z,51.10
2018-02-16T05:31:09.464Z,42.00
2018-02-16T05:32:09.555Z,37.10
2018-02-16T05:33:09.403Z,38.40
2018-02-16T05:34:09.462Z,38.00
2018-02-16T05:35:09.341Z,40.00
2018-02-16T05:36:09.479Z,37.20
2018-02-16T05:37:09.278Z,35.90
2018-02-16T05:38:09.394Z,40.10
2018-02-16T05:39:09.219Z,39.10
2018-02-16T05:40:09.304Z,35.20
2018-02-16T05:41:09.158Z,38.20
2018-02-16T05:42:09.215Z,38.10
2018-02-16T05:43:09.097Z,37.80
2018-02-16T05:44:09.229Z,40.30
2018-02-16T05:45:09.036Z,37.20
2018-02-16T05:46:09.138Z,37.00
2018-02-16T05:47:08.974Z,39.00
2018-02-16T05:48:09.056Z,40.50
2018-02-16T05:49:08.911Z,38.70
2018-02-16T05:50:09.067Z,34.30
2018-02-16T05:51:08.851Z,36.70
2018-02-16T05:52:08.978Z,35.30
2018-02-16T05:53:08.789Z,39.40
2018-02-16T05:54:08.888Z,37.90
2018-02-16T05:55:08.735Z,35.60
2018-02-16T05:56:08.801Z,37.30
2018-02-16T05:57:08.667Z,33.60
2018-02-16T05:58:08.815Z,40.70
2018-02-16T05:59:08.609Z,41.20
2018-02-16T06:00:08.649Z,41.60
2018-02-16T06:01:08.545Z,36.30
2018-02-16T06:02:08.639Z,38.00
2018-02-16T06:03:08.485Z,37.60
2018-02-16T06:04:08.551Z,37.60
2018-02-16T06:05:08.419Z,41.00
2018-02-16T06:06:08.565Z,41.00
2018-02-16T06:07:08.363Z,43.60
2018-02-16T06:08:08.476Z,41.50
2018-02-16T06:09:08.302Z,38.00
2018-02-16T06:10:08.380Z,37.80
2018-02-16T06:11:08.242Z,37.50
2018-02-16T06:12:08.402Z,42.30
2018-02-16T06:13:08.178Z,41.30
2018-02-16T06:14:08.310Z,41.20
2018-02-16T06:15:08.119Z,42.00
2018-02-16T06:16:08.224Z,34.50
2018-02-16T06:17:08.053Z,38.70
2018-02-16T06:18:08.137Z,39.30
2018-02-16T06:19:07.994Z,38.00
2018-02-16T06:20:08.152Z,36.60
2018-02-16T06:21:07.931Z,36.70
2018-02-16T06:22:08.064Z,37.80
2018-02-16T06:23:07.871Z,35.10
2018-02-16T06:24:07.971Z,33.30
2018-02-16T06:25:07.811Z,37.70
2018-02-16T06:26:07.983Z,34.00
2018-02-16T06:27:07.751Z,33.60
2018-02-16T06:28:07.898Z,37.00
2018-02-16T06:29:07.689Z,38.00
2018-02-16T06:30:07.813Z,35.50
2018-02-16T06:31:07.661Z,38.10
2018-02-16T06:32:07.721Z,39.30
2018-02-16T06:33:07.563Z,32.00
2018-02-16T06:34:07.735Z,33.90
2018-02-16T06:35:07.504Z,34.10
2018-02-16T06:36:07.648Z,35.30
2018-02-16T06:37:07.441Z,36.90
2018-02-16T06:38:07.557Z,30.60
2018-02-16T06:39:07.379Z,39.50
2018-02-16T06:40:07.467Z,36.90
2018-02-16T06:41:07.319Z,35.50
2018-02-16T06:42:07.483Z,34.20
2018-02-16T06:43:07.260Z,41.00
2018-02-16T06:44:07.395Z,33.00
2018-02-16T06:45:07.201Z,38.70
2018-02-16T06:46:07.306Z,34.10
2018-02-16T06:47:07.135Z,35.90
2018-02-16T06:48:07.318Z,33.40
2018-02-16T06:49:07.072Z,34.80
2018-02-16T06:50:07.125Z,32.00
2018-02-16T06:51:07.013Z,36.40
2018-02-16T06:52:07.037Z,37.40
2018-02-16T06:53:06.945Z,34.50
2018-02-16T06:54:06.951Z,39.10
2018-02-16T06:55:06.889Z,31.90
2018-02-16T06:56:06.964Z,32.30
2018-02-16T06:57:06.837Z,31.60
2018-02-16T06:58:06.878Z,31.60
2018-02-16T06:59:06.764Z,39.40
2018-02-16T07:00:06.788Z,32.10
2018-02-16T07:01:06.705Z,39.00
2018-02-16T07:02:06.802Z,35.60
2018-02-16T07:03:06.641Z,35.50
2018-02-16T07:04:06.715Z,38.20
2018-02-16T07:05:06.576Z,31.00
2018-02-16T07:06:06.625Z,36.60
2018-02-16T07:07:06.517Z,35.70
2018-02-16T07:08:06.536Z,31.20
2018-02-16T07:09:06.456Z,33.70
2018-02-16T07:10:06.552Z,30.70
2018-02-16T07:11:06.425Z,34.00
2018-02-16T07:12:06.503Z,37.00
2018-02-16T07:13:06.333Z,33.00
2018-02-16T07:14:06.373Z,35.00
2018-02-16T07:15:06.273Z,37.90
2018-02-16T07:16:06.287Z,33.90
2018-02-16T07:17:06.209Z,35.90
2018-02-16T07:18:06.300Z,33.60
2018-02-16T07:19:06.149Z,35.00
2018-02-16T07:20:06.211Z,31.50
2018-02-16T07:21:06.093Z,32.60
2018-02-16T07:22:06.122Z,31.30
2018-02-16T07:23:06.042Z,33.70
2018-02-16T07:24:06.136Z,30.00
2018-02-16T07:25:05.963Z,31.40
2018-02-16T07:26:06.047Z,36.10
2018-02-16T07:27:05.902Z,31.00
2018-02-16T07:28:05.957Z,35.50
2018-02-16T07:29:05.841Z,31.60
2018-02-16T07:30:05.870Z,35.60
2018-02-16T07:31:05.789Z,29.50
2018-02-16T07:32:05.883Z,30.60
2018-02-16T07:33:05.721Z,32.50
2018-02-16T07:34:05.797Z,31.70
2018-02-16T07:35:05.654Z,35.40
2018-02-16T07:36:05.707Z,29.70
2018-02-16T07:37:05.598Z,32.90
2018-02-16T07:38:05.722Z,30.20
2018-02-16T07:39:05.533Z,33.10
2018-02-16T07:40:05.634Z,30.50
2018-02-16T07:41:05.471Z,38.10
2018-02-16T07:42:05.546Z,32.00
2018-02-16T07:43:05.421Z,31.20
2018-02-16T07:44:05.456Z,28.10
2018-02-16T07:45:05.351Z,31.50
2018-02-16T07:46:05.467Z,29.00
2018-02-16T07:47:05.292Z,31.10
2018-02-16T07:48:05.382Z,34.90
2018-02-16T07:49:05.227Z,32.00
2018-02-16T07:50:05.293Z,30.60
2018-02-16T07:51:05.167Z,27.90
2018-02-16T07:52:05.208Z,33.30
2018-02-16T07:53:05.104Z,29.90
2018-02-16T07:54:05.216Z,27.80
2018-02-16T07:55:05.046Z,31.40
2018-02-16T07:56:05.128Z,29.00
2018-02-16T07:57:04.981Z,31.90
2018-02-16T07:58:05.032Z,38.00
2018-02-16T07:59:04.919Z,32.70
2018-02-16T08:00:05.055Z,28.20
2018-02-16T08:01:04.857Z,29.50
2018-02-16T08:02:04.968Z,30.50
2018-02-16T08:03:04.799Z,28.30
2018-02-16T08:04:04.813Z,31.20
2018-02-16T08:05:04.738Z,30.20
2018-02-16T08:06:04.788Z,32.00
2018-02-16T08:07:04.684Z,34.00
2018-02-16T08:08:04.805Z,35.00
2018-02-16T08:09:04.616Z,34.00
2018-02-16T08:10:04.714Z,32.70
2018-02-16T08:11:04.560Z,30.40
2018-02-16T08:12:04.625Z,30.00
2018-02-16T08:13:04.496Z,30.40
2018-02-16T08:14:04.638Z,27.20
2018-02-16T08:15:04.443Z,36.40
2018-02-16T08:16:04.480Z,27.20
2018-02-16T08:17:04.372Z,29.60
2018-02-16T08:18:04.462Z,30.90
2018-02-16T08:19:04.318Z,29.60
2018-02-16T08:20:04.379Z,30.00
2018-02-16T08:21:04.249Z,30.90
2018-02-16T08:22:04.387Z,27.80
2018-02-16T08:23:04.194Z,26.80
2018-02-16T08:24:04.300Z,26.30
2018-02-16T08:25:04.131Z,24.80
2018-02-16T08:26:04.209Z,28.10
2018-02-16T08:27:04.072Z,30.60
2018-02-16T08:28:04.225Z,27.30
2018-02-16T08:29:04.011Z,27.30
2018-02-16T08:30:04.135Z,29.40
2018-02-16T08:31:03.948Z,33.50
2018-02-16T08:32:03.967Z,27.90
2018-02-16T08:33:03.892Z,29.80
2018-02-16T08:34:03.877Z,29.70
2018-02-16T08:35:03.832Z,32.90
2018-02-16T08:36:03.977Z,32.10
2018-02-16T08:37:03.771Z,26.00
2018-02-16T08:38:03.886Z,29.10
2018-02-16T08:39:03.709Z,30.40
2018-02-16T08:40:03.796Z,28.70
2018-02-16T08:41:03.650Z,28.10
2018-02-16T08:42:03.812Z,32.00
2018-02-16T08:43:03.589Z,26.50
2018-02-16T08:44:03.723Z,29.00
2018-02-16T08:45:03.528Z,24.60
2018-02-16T08:46:03.636Z,29.80
2018-02-16T08:47:03.469Z,29.10
2018-02-16T08:48:03.545Z,26.40
2018-02-16T08:49:03.419Z,28.60
2018-02-16T08:50:03.562Z,29.90
2018-02-16T08:51:03.348Z,30.00
2018-02-16T08:52:03.471Z,29.10
2018-02-16T08:53:03.288Z,27.70
2018-02-16T08:54:03.382Z,27.90
2018-02-16T08:55:03.236Z,28.00
2018-02-16T08:56:03.395Z,23.20
2018-02-16T08:57:03.170Z,29.20
2018-02-16T08:58:03.309Z,32.50
2018-02-16T08:59:03.113Z,27.60
2018-02-16T09:00:03.222Z,28.80
2018-02-16T09:01:03.053Z,28.90
2018-02-16T09:02:03.233Z,26.00
2018-02-16T09:03:02.991Z,33.10
2018-02-16T09:04:03.142Z,29.20
2018-02-16T09:05:02.932Z,22.20
2018-02-16T09:06:03.060Z,25.50
2018-02-16T09:07:02.874Z,27.60
2018-02-16T09:08:02.969Z,26.20
2018-02-16T09:09:02.814Z,25.70
2018-02-16T09:10:02.982Z,25.00
2018-02-16T09:11:02.755Z,27.80
2018-02-16T09:12:02.796Z,27.50
2018-02-16T09:13:02.695Z,26.80
2018-02-16T09:14:02.702Z,27.10
2018-02-16T09:15:02.636Z,28.60
2018-02-16T09:16:02.719Z,26.80
2018-02-16T09:17:02.576Z,32.70
2018-02-16T09:18:02.629Z,27.20
2018-02-16T09:19:02.518Z,25.60
2018-02-16T09:20:02.546Z,24.30
2018-02-16T09:21:02.456Z,29.80
2018-02-16T09:22:02.560Z,27.50
2018-02-16T09:23:02.401Z,24.30
2018-02-16T09:24:02.469Z,25.20
2018-02-16T09:25:02.339Z,28.50
2018-02-16T09:26:02.378Z,25.20
2018-02-16T09:27:02.283Z,30.00
2018-02-16T09:28:02.287Z,26.40
2018-02-16T09:29:02.222Z,28.40
2018-02-16T09:30:02.300Z,26.10
2018-02-16T09:31:02.164Z,25.70
2018-02-16T09:32:02.212Z,22.50
2018-02-16T09:33:02.104Z,23.30
2018-02-16T09:34:02.117Z,24.80
2018-02-16T09:35:02.048Z,22.90
2018-02-16T09:36:02.146Z,24.60
2018-02-16T09:37:01.996Z,26.10
2018-02-16T09:38:02.049Z,23.70
2018-02-16T09:39:01.947Z,25.60
2018-02-16T09:40:01.961Z,23.40
2018-02-16T09:41:01.933Z,24.40
2018-02-16T09:42:01.975Z,24.60
2018-02-16T09:43:02.099Z,22.00
2018-02-16T09:44:01.889Z,22.90
2018-02-16T09:45:01.802Z,24.50
2018-02-16T09:46:01.897Z,24.30
2018-02-16T09:47:01.750Z,19.70
2018-02-16T09:48:01.824Z,23.80
2018-02-16T09:49:01.715Z,23.50
2018-02-16T09:50:01.823Z,20.30
2018-02-16T09:51:01.669Z,21.80
2018-02-16T09:52:01.739Z,20.40
2018-02-16T09:53:01.621Z,17.90
2018-02-16T09:54:01.751Z,21.60
2018-02-16T09:55:01.587Z,19.70
2018-02-16T09:56:01.622Z,21.80
2018-02-16T09:57:01.549Z,24.60
2018-02-16T09:58:01.679Z,19.90
2018-02-16T09:59:01.511Z,23.90
2018-02-16T10:00:01.591Z,22.10
2018-02-16T10:01:01.469Z,21.70
2018-02-16T10:02:01.558Z,23.50
2018-02-16T10:03:01.449Z,21.40
2018-02-16T10:04:01.520Z,22.50
2018-02-16T10:05:01.407Z,22.10
2018-02-16T10:06:01.532Z,22.10
2018-02-16T10:07:01.377Z,21.00
2018-02-16T10:08:01.448Z,19.30
2018-02-16T10:09:01.396Z,20.30
2018-02-16T10:10:01.327Z,22.90
2018-02-16T10:11:01.317Z,18.70
2018-02-16T10:12:01.468Z,23.20
2018-02-16T10:13:01.282Z,21.20
2018-02-16T10:14:01.380Z,19.80
2018-02-16T10:15:01.285Z,20.50
2018-02-16T10:16:01.396Z,20.90
2018-02-16T10:17:01.225Z,20.90
2018-02-16T10:18:01.308Z,19.80
2018-02-16T10:19:01.198Z,18.60
2018-02-16T10:20:01.324Z,20.50
2018-02-16T10:21:01.168Z,18.00
2018-02-16T10:22:01.233Z,20.90
2018-02-16T10:23:01.140Z,17.70
2018-02-16T10:24:01.246Z,24.30
2018-02-16T10:25:01.106Z,20.50
2018-02-16T10:26:01.259Z,19.20
2018-02-16T10:27:01.086Z,18.40
2018-02-16T10:28:01.172Z,20.00
2018-02-16T10:29:01.062Z,18.90
2018-02-16T10:30:01.224Z,18.90
2018-02-16T10:31:01.034Z,18.70
2018-02-16T10:32:01.200Z,16.50
2018-02-16T10:33:01.010Z,18.60
2018-02-16T10:34:01.113Z,19.90
2018-02-16T10:35:00.988Z,17.20
2018-02-16T10:36:01.125Z,21.00
2018-02-16T10:37:00.960Z,21.30
2018-02-16T10:38:01.036Z,15.70
2018-02-16T10:39:00.933Z,20.20
2018-02-16T10:40:01.050Z,20.40
2018-02-16T10:41:00.913Z,19.00
2018-02-16T10:42:01.065Z,19.60
2018-02-16T10:43:00.889Z,18.00
2018-02-16T10:44:00.977Z,16.60
2018-02-16T10:45:00.862Z,16.30
2018-02-16T10:46:00.989Z,17.40
2018-02-16T10:47:00.840Z,19.10
2018-02-16T10:48:01.005Z,22.50
2018-02-16T10:49:00.818Z,19.20
2018-02-16T10:50:00.914Z,16.70
2018-02-16T10:51:00.791Z,17.60
2018-02-16T10:52:00.932Z,18.30
2018-02-16T10:53:00.770Z,16.70
2018-02-16T10:54:00.942Z,17.50
2018-02-16T10:55:00.762Z,18.00
2018-02-16T10:56:00.769Z,22.40
2018-02-16T10:57:00.727Z,16.20
2018-02-16T10:58:00.782Z,17.40
2018-02-16T10:59:00.703Z,18.20
2018-02-16T11:00:00.794Z,18.50
2018-02-16T11:01:00.680Z,20.10
2018-02-16T11:02:00.705Z,17.40
2018-02-16T11:03:00.661Z,16.70
2018-02-16T11:04:00.718Z,17.30
2018-02-16T11:05:00.642Z,18.20
2018-02-16T11:06:00.724Z,19.90
2018-02-16T11:07:00.614Z,16.20
2018-02-16T11:08:00.642Z,19.10
2018-02-16T11:09:00.591Z,19.20
2018-02-16T11:10:00.651Z,16.00
2018-02-16T11:11:00.573Z,18.60
2018-02-16T11:12:00.666Z,14.70
2018-02-16T11:13:00.550Z,15.60
2018-02-16T11:14:00.574Z,18.00
2018-02-16T11:15:00.530Z,18.40
2018-02-16T11:16:00.591Z,18.00
2018-02-16T11:17:00.506Z,15.20
2018-02-16T11:18:00.600Z,15.30
2018-02-16T11:19:00.497Z,15.10
2018-02-16T11:20:00.509Z,19.60
2018-02-16T11:21:00.469Z,20.00
2018-02-16T11:22:00.520Z,16.90
2018-02-16T11:23:00.445Z,18.30
2018-02-16T11:24:00.536Z,15.40
2018-02-16T11:25:00.421Z,14.50
2018-02-16T11:26:00.445Z,13.80
2018-02-16T11:27:00.399Z,16.30
2018-02-16T11:28:00.457Z,15.70
2018-02-16T11:29:00.383Z,16.20
2018-02-16T11:30:00.469Z,15.10
2018-02-16T11:31:00.349Z,15.10
2018-02-16T11:32:00.378Z,17.50
2018-02-16T11:33:00.324Z,15.60
2018-02-16T11:34:00.390Z,16.60
2018-02-16T11:35:00.299Z,16.70
2018-02-16T11:36:00.303Z,15.30
2018-02-16T11:37:00.273Z,13.00
2018-02-16T11:38:00.322Z,16.20
2018-02-16T11:39:00.252Z,14.70
2018-02-16T11:40:00.327Z,15.10
2018-02-16T11:41:00.227Z,15.30
2018-02-16T11:42:00.237Z,15.50
2018-02-16T11:43:00.200Z,13.80
2018-02-16T11:44:00.252Z,15.30
2018-02-16T11:45:00.173Z,12.80
2018-02-16T11:46:00.263Z,13.50
2018-02-16T11:47:00.148Z,14.60
2018-02-16T11:48:00.171Z,13.50
2018-02-16T11:49:00.120Z,14.80
2018-02-16T11:50:00.184Z,14.10
2018-02-16T11:51:00.100Z,12.90
2018-02-16T11:52:00.195Z,11.30
2018-02-16T11:53:00.071Z,13.00
2018-02-16T11:54:00.106Z,14.50
2018-02-16T11:55:00.045Z,12.50
2018-02-16T11:56:00.118Z,15.10
2018-02-16T11:57:00.025Z,14.80
2018-02-16T11:58:00.030Z,11.60
2018-02-16T11:58:59.988Z,14.40
2018-02-16T12:00:00.048Z,15.40
2018-02-16T12:00:59.960Z,15.00
2018-02-16T12:02:00.054Z,14.90
2018-02-16T12:02:59.930Z,16.90
2018-02-16T12:03:59.964Z,13.10
2018-02-16T12:04:59.910Z,11.50
2018-02-16T12:05:59.979Z,9.00
2018-02-16T12:06:59.883Z,14.00
2018-02-16T12:07:59.888Z,11.80
2018-02-16T12:08:59.847Z,13.00
2018-02-16T12:09:59.900Z,9.70
2018-02-16T12:10:59.816Z,11.40
2018-02-16T12:11:59.913Z,11.00
2018-02-16T12:12:59.798Z,10.60
2018-02-16T12:13:59.823Z,10.20
2018-02-16T12:14:59.770Z,12.50
2018-02-16T12:15:59.836Z,10.90
2018-02-16T12:16:59.743Z,9.40
2018-02-16T12:17:59.745Z,10.50
2018-02-16T12:18:59.714Z,12.50
2018-02-16T12:19:59.756Z,12.80
2018-02-16T12:20:59.723Z,12.70
2018-02-16T12:21:59.768Z,12.70
2018-02-16T12:22:59.665Z,12.90
2018-02-16T12:23:59.673Z,11.00
2018-02-16T12:24:59.639Z,9.50
2018-02-16T12:25:59.692Z,11.60
2018-02-16T12:26:59.617Z,12.90
2018-02-16T12:27:59.705Z,11.40
2018-02-16T12:28:59.593Z,14.30
2018-02-16T12:29:59.614Z,14.30
2018-02-16T12:30:59.564Z,13.70
2018-02-16T12:31:59.625Z,11.60
2018-02-16T12:32:59.544Z,11.10
2018-02-16T12:33:59.633Z,10.20
2018-02-16T12:34:59.522Z,12.10
2018-02-16T12:35:59.550Z,9.90
2018-02-16T12:36:59.494Z,10.10
2018-02-16T12:37:59.563Z,11.50
2018-02-16T12:38:59.466Z,12.90
2018-02-16T12:39:59.465Z,11.90
2018-02-16T12:40:59.447Z,10.40
2018-02-16T12:41:59.430Z,10.50
2018-02-16T12:42:59.422Z,10.50
2018-02-16T12:43:59.495Z,12.20
2018-02-16T12:44:59.395Z,11.60
2018-02-16T12:45:59.407Z,10.60
2018-02-16T12:46:59.372Z,11.80
2018-02-16T12:47:59.460Z,13.10
2018-02-16T12:48:59.343Z,10.60
2018-02-16T12:49:59.430Z,8.60
2018-02-16T12:50:59.322Z,12.00
2018-02-16T12:51:59.342Z,9.90